»·PEaware :: N8DL KORS-KHQM

N8DL :: KORS-KHQM

FLIGHT INFORMATION

Flight Status: Arrived
Operator: Privately registered:
United States
More flights under this callsign
Pilot: Dean L. (8400)
Aircraft: CESSNA 525 CITATION JET CJ1
(C525)
More flights by this aircraft type
Origin: KORS Orcas I
United States
Destination: KHQM Bowerman
United States
More flights between these airports :: More routes between these airports
Route: FEGBA2 CVV OLM
File this flight plan on PilotEdge
Remarks:
Altitude:
(Current/Filed)
12,000ft
Speed:
(Current/Filed)
350kts
Departed: 07-Oct-18 02:39 PM
Arrived: 07-Oct-18 03:15 PM
Distance/Time
Traveled:
112nm/0:36
Distance/Time
To Go:
Arrived

Flight Plot

Page will automatically refresh every two minutes.

Flight plan parsing failed; only flown route is shown


Map Options




Map Legend


Flown Route
Filed Route
Departure Airport
Arrival Airport
Navaid (VOR, NDB)
Fix

Horizontal Profiles

Position Reports

Time Latitude Longitude Heading Altitude Ground
Speed
07-Oct-18 14:31 48.706079 -122.909477 172 17ft 0kts
07-Oct-18 14:32 48.706075 -122.909477 172 17ft 0kts
07-Oct-18 14:33 48.706072 -122.909476 172 17ft 0kts
07-Oct-18 14:34 48.706069 -122.909475 172 17ft 0kts
07-Oct-18 14:35 48.706066 -122.909475 172 17ft 0kts
07-Oct-18 14:36 48.706063 -122.909474 172 17ft 0kts
07-Oct-18 14:37 48.706060 -122.909474 172 17ft 0kts
07-Oct-18 14:38 48.705997 -122.909527 247 17ft 3kts
07-Oct-18 14:39 48.710381 -122.909900 354 17ft 28kts
07-Oct-18 14:40 48.712225 -122.910035 301 17ft 1kts
07-Oct-18 14:41 48.694028 -122.910824 180 367ft 160kts
07-Oct-18 14:42 48.642038 -122.910829 179 3232ft 189kts
07-Oct-18 14:43 48.587616 -122.909823 178 6342ft 204kts
07-Oct-18 14:44 48.530952 -122.908774 180 9855ft 201kts
07-Oct-18 14:45 48.471858 -122.907904 185 12016ft 256kts
07-Oct-18 14:46 48.385210 -122.935778 170 12041ft 366kts
07-Oct-18 14:47 48.322379 -122.829159 123 12021ft 345kts
07-Oct-18 14:48 48.250393 -122.738481 161 12025ft 338kts
07-Oct-18 14:49 48.158684 -122.736552 189 12003ft 331kts
07-Oct-18 14:50 48.066893 -122.749719 188 11983ft 331kts
07-Oct-18 14:51 47.975132 -122.762729 189 11982ft 332kts
07-Oct-18 14:52 47.881167 -122.775986 189 11999ft 339kts
07-Oct-18 14:53 47.787288 -122.789183 189 11995ft 339kts
07-Oct-18 14:54 47.695802 -122.802007 189 12001ft 339kts
07-Oct-18 14:55 47.601489 -122.815164 189 12005ft 340kts
07-Oct-18 14:56 47.507366 -122.828250 189 12008ft 340kts
07-Oct-18 14:57 47.413136 -122.841307 189 12010ft 341kts
07-Oct-18 14:58 47.318503 -122.854368 189 12010ft 341kts
07-Oct-18 14:59 47.223741 -122.867412 189 12012ft 342kts
07-Oct-18 15:00 47.128983 -122.880432 189 12016ft 342kts
07-Oct-18 15:01 47.035012 -122.900021 207 12013ft 335kts
07-Oct-18 15:02 46.976898 -122.985479 252 10351ft 244kts
07-Oct-18 15:03 46.968971 -123.071423 269 8345ft 201kts
07-Oct-18 15:04 46.967779 -123.152822 268 6347ft 196kts
07-Oct-18 15:05 46.966614 -123.220902 267 5979ft 148kts
07-Oct-18 15:06 46.965375 -123.293319 267 5998ft 193kts
07-Oct-18 15:07 46.964216 -123.357978 267 5998ft 189kts
07-Oct-18 15:08 46.965592 -123.432889 285 5983ft 164kts
07-Oct-18 15:09 46.978671 -123.500588 284 5585ft 167kts
07-Oct-18 15:10 46.988913 -123.553768 284 4267ft 164kts
07-Oct-18 15:11 47.001014 -123.616788 283 3005ft 143kts
07-Oct-18 15:12 47.004110 -123.665515 257 2764ft 122kts
07-Oct-18 15:13 46.997315 -123.722438 259 2079ft 150kts
07-Oct-18 15:14 46.990359 -123.780023 259 2013ft 150kts
07-Oct-18 15:15 46.982653 -123.843135 259 1538ft 150kts
07-Oct-18 15:16 46.976084 -123.899146 261 591ft 144kts
07-Oct-18 15:17 46.970927 -123.940425 321 18ft 17kts
07-Oct-18 15:18 46.972632 -123.933478 80 18ft 31kts
07-Oct-18 15:19 46.973517 -123.929770 356 18ft 0kts
07-Oct-18 15:20 46.973519 -123.929770 356 18ft 0kts
07-Oct-18 15:21 46.973520 -123.929770 356 18ft 0kts
07-Oct-18 15:22 46.973522 -123.929770 356 18ft 0kts
07-Oct-18 15:23 46.973524 -123.929771 356 18ft 0kts
07-Oct-18 15:24 46.973526 -123.929771 356 18ft 0kts

Navigation Log

Ident Type
Flight plan parsing failed, navigation log unavailable